Time;durP1;ratioP1;P1;durP2;ratioP2;P2;SDS_P1;SDS_P2;PMS_P1;PMS_P2;Temp;Humidity;BMP_temperature;BMP_pressure;BME280_temperature;BME280_humidity;BME280_pressure;Samples;Min_cycle;Max_cycle;Signal;HPM_P1;HPM_P2
2021/10/06 00:00:06;;;;;;;4.32;2.40;;;;;;;11.76;88.82;100169.53;5066930;28;20049;-79
2021/10/06 00:02:37;;;;;;;3.75;2.33;;;;;;;11.80;88.54;100172.97;5064805;28;20048;-78
2021/10/06 00:05:03;;;;;;;5.13;2.40;;;;;;;11.88;88.62;100180.81;5067186;28;20044;-79
2021/10/06 00:07:28;;;;;;;4.47;3.28;;;;;;;11.93;87.90;100174.56;5047765;28;20085;-79
2021/10/06 00:09:53;;;;;;;3.85;2.60;;;;;;;11.96;87.93;100179.78;5066369;28;20509;-79
2021/10/06 00:12:19;;;;;;;4.75;3.10;;;;;;;11.97;87.81;100183.28;5066023;28;20043;-79
2021/10/06 00:14:44;;;;;;;8.65;4.35;;;;;;;11.96;88.13;100177.13;5065487;28;20036;-79
2021/10/06 00:17:09;;;;;;;5.47;3.72;;;;;;;11.96;87.95;100186.84;5066401;28;20065;-79
2021/10/06 00:19:34;;;;;;;4.47;2.65;;;;;;;11.93;87.52;100198.34;5065144;28;20407;-79
2021/10/06 00:22:00;;;;;;;5.78;3.03;;;;;;;11.96;87.52;100192.13;5069001;28;20529;-79
2021/10/06 00:24:25;;;;;;;3.13;1.88;;;;;;;12.01;87.12;100192.94;5067597;28;20403;-79
2021/10/06 00:26:51;;;;;;;3.70;2.70;;;;;;;12.05;87.38;100187.56;5064507;28;20395;-79
2021/10/06 00:29:17;;;;;;;4.65;2.03;;;;;;;12.09;86.95;100193.66;5067148;28;20039;-78
2021/10/06 00:31:42;;;;;;;4.25;2.50;;;;;;;12.02;87.10;100199.97;5064462;28;20041;-78
2021/10/06 00:34:07;;;;;;;4.55;1.92;;;;;;;11.98;87.22;100196.50;5078517;22;20390;-84
2021/10/06 00:36:33;;;;;;;4.13;2.22;;;;;;;11.90;87.32;100192.25;5072551;28;20036;-84
2021/10/06 00:38:58;;;;;;;4.63;2.88;;;;;;;11.80;87.94;100195.00;5054545;28;20067;-84
2021/10/06 00:41:23;;;;;;;4.38;2.00;;;;;;;11.75;87.62;100188.91;5055191;28;20047;-84
2021/10/06 00:43:49;;;;;;;5.95;2.92;;;;;;;11.74;87.83;100183.69;5075289;28;20099;-83
2021/10/06 00:46:14;;;;;;;5.63;2.55;;;;;;;11.72;87.42;100188.97;5054875;28;20045;-84
2021/10/06 00:48:39;;;;;;;4.05;2.70;;;;;;;11.75;87.88;100188.06;5037810;28;20044;-84
2021/10/06 00:51:05;;;;;;;5.28;2.78;;;;;;;11.81;87.99;100182.66;5051630;28;20046;-83
2021/10/06 00:53:30;;;;;;;5.15;3.22;;;;;;;11.91;87.85;100189.56;5051997;28;20052;-84
2021/10/06 00:55:55;;;;;;;8.10;4.70;;;;;;;11.94;87.61;100186.00;5034335;28;20112;-83
2021/10/06 00:58:22;;;;;;;5.28;3.50;;;;;;;11.99;88.18;100186.78;5037833;28;20040;-83
2021/10/06 01:00:47;;;;;;;4.55;3.20;;;;;;;12.06;88.17;100184.00;5060532;28;20028;-84
2021/10/06 01:03:13;;;;;;;4.05;3.13;;;;;;;12.12;87.42;100183.03;5037618;28;20048;-83
2021/10/06 01:05:38;;;;;;;4.88;3.45;;;;;;;12.16;87.55;100197.97;5031487;28;20034;-84
2021/10/06 01:08:04;;;;;;;6.75;4.00;;;;;;;12.21;87.62;100201.41;5020678;28;20109;-84
2021/10/06 01:10:31;;;;;;;6.88;4.03;;;;;;;12.21;87.21;100196.09;5053784;28;20092;-84
2021/10/06 01:12:56;;;;;;;6.43;3.75;;;;;;;12.26;87.42;100190.69;5052447;28;20049;-84
2021/10/06 01:15:22;;;;;;;5.50;3.45;;;;;;;12.25;87.17;100184.53;5044945;28;20038;-84
2021/10/06 01:17:49;;;;;;;7.35;3.90;;;;;;;12.23;87.86;100188.97;5037927;28;20033;-84
2021/10/06 01:20:16;;;;;;;4.88;3.33;;;;;;;12.26;87.08;100196.00;5051012;28;20038;-84
2021/10/06 01:22:41;;;;;;;5.25;4.05;;;;;;;12.31;87.32;100194.13;5055912;28;20096;-84
2021/10/06 01:25:10;;;;;;;6.28;3.42;;;;;;;12.33;87.35;100187.06;5049631;28;20064;-84
2021/10/06 01:27:36;;;;;;;5.88;4.13;;;;;;;12.41;87.62;100182.47;5032359;28;20076;-84
2021/10/06 01:30:04;;;;;;;5.63;3.80;;;;;;;12.55;87.20;100192.81;5016309;28;20044;-84
2021/10/06 01:32:35;;;;;;;4.85;3.42;;;;;;;12.62;86.80;100183.84;5049391;28;20044;-84
2021/10/06 01:35:03;;;;;;;4.35;2.90;;;;;;;12.68;86.54;100186.38;5038058;28;20036;-84
2021/10/06 01:37:30;;;;;;;7.25;2.75;;;;;;;12.70;86.63;100188.97;5044013;28;20030;-84
2021/10/06 01:39:55;;;;;;;4.82;2.70;;;;;;;12.75;86.68;100200.34;5055005;28;20043;-85
2021/10/06 01:42:21;;;;;;;7.32;2.40;;;;;;;12.80;86.54;100208.19;5053314;28;20414;-85
2021/10/06 01:44:48;;;;;;;3.78;2.45;;;;;;;12.81;86.33;100204.63;5058837;28;20092;-85
2021/10/06 01:47:20;;;;;;;4.20;3.00;;;;;;;12.88;86.21;100200.97;5053019;28;20494;-85
2021/10/06 01:49:47;;;;;;;3.80;2.80;;;;;;;12.94;86.15;100204.38;5052338;28;20056;-85
2021/10/06 01:52:21;;;;;;;5.10;2.42;;;;;;;13.05;86.16;100209.44;5055611;28;20067;-85
2021/10/06 01:54:48;;;;;;;5.25;2.75;;;;;;;13.11;85.45;100208.44;5042646;28;20033;-85
2021/10/06 01:57:14;;;;;;;4.97;1.98;;;;;;;13.14;85.39;100214.53;5014434;28;20450;-85
2021/10/06 01:59:42;;;;;;;3.60;2.42;;;;;;;13.13;85.01;100214.59;5034783;28;20096;-85
2021/10/06 02:02:08;;;;;;;4.10;2.55;;;;;;;13.14;85.31;100211.88;5037726;28;20056;-86
2021/10/06 02:04:34;;;;;;;3.28;2.47;;;;;;;13.16;84.67;100218.03;5051912;28;20068;-84
2021/10/06 02:06:59;;;;;;;3.67;2.42;;;;;;;13.19;84.11;100216.22;5055721;28;20116;-85
2021/10/06 02:09:24;;;;;;;5.40;2.35;;;;;;;13.20;83.78;100224.13;5053004;28;20563;-85
2021/10/06 02:11:49;;;;;;;4.68;2.35;;;;;;;13.24;83.67;100224.94;5053585;28;20080;-85
2021/10/06 02:14:15;;;;;;;3.17;1.77;;;;;;;13.26;83.17;100233.75;5051394;28;20500;-85
2021/10/06 02:16:40;;;;;;;3.30;1.50;;;;;;;13.34;83.22;100226.53;5047912;28;20488;-85
2021/10/06 02:19:07;;;;;;;3.58;1.75;;;;;;;13.36;83.15;100235.28;5053327;28;20037;-85
2021/10/06 02:21:34;;;;;;;3.50;1.80;;;;;;;13.41;83.28;100237.84;5038171;28;20583;-86
2021/10/06 02:23:59;;;;;;;2.28;1.35;;;;;;;13.47;83.45;100237.72;5052790;28;20029;-84
2021/10/06 02:26:24;;;;;;;3.55;1.83;;;;;;;13.52;83.09;100235.84;5053756;28;20055;-85
2021/10/06 02:28:50;;;;;;;2.35;1.42;;;;;;;13.57;82.89;100239.22;5033862;28;20041;-85
2021/10/06 02:31:15;;;;;;;3.30;1.80;;;;;;;13.61;82.38;100246.22;5036720;28;20043;-85
2021/10/06 02:33:40;;;;;;;2.50;1.75;;;;;;;13.68;82.05;100249.63;5046748;28;20068;-84
2021/10/06 02:36:06;;;;;;;2.47;1.60;;;;;;;13.67;81.68;100254.03;5051399;28;20029;-84
2021/10/06 02:38:31;;;;;;;3.45;1.60;;;;;;;13.75;80.97;100248.53;5035970;28;20048;-84
2021/10/06 02:40:56;;;;;;;3.22;1.40;;;;;;;13.81;80.69;100261.69;5034112;28;20037;-85
2021/10/06 02:43:22;;;;;;;3.85;1.38;;;;;;;13.89;80.33;100262.34;5054105;28;20037;-84
2021/10/06 02:45:47;;;;;;;2.83;1.27;;;;;;;13.95;80.29;100264.00;5034666;28;20033;-85
2021/10/06 02:48:12;;;;;;;2.13;1.05;;;;;;;13.95;79.54;100267.50;5058145;28;20406;-84
2021/10/06 02:50:38;;;;;;;2.40;1.40;;;;;;;14.01;79.42;100277.97;5052375;28;20033;-84
2021/10/06 02:53:03;;;;;;;3.55;1.30;;;;;;;14.10;78.86;100291.94;5034965;28;20071;-85
2021/10/06 02:55:28;;;;;;;4.47;1.40;;;;;;;14.10;79.02;100292.81;5053818;28;20037;-84
2021/10/06 02:57:54;;;;;;;3.15;1.50;;;;;;;14.24;78.61;100297.75;5045430;28;20045;-84
2021/10/06 03:00:20;;;;;;;2.47;1.15;;;;;;;14.27;77.94;100295.03;5032992;28;20083;-84
2021/10/06 03:02:45;;;;;;;3.33;1.30;;;;;;;14.33;77.79;100305.50;5050957;28;20286;-84
2021/10/06 03:05:11;;;;;;;3.45;1.52;;;;;;;14.37;77.27;100304.50;5054931;28;20029;-84
2021/10/06 03:07:37;;;;;;;3.67;1.30;;;;;;;14.39;77.29;100302.69;5051547;28;20049;-84
2021/10/06 03:10:04;;;;;;;5.40;1.10;;;;;;;14.44;76.89;100305.25;5054464;28;20039;-83
2021/10/06 03:12:29;;;;;;;3.30;1.27;;;;;;;14.39;76.11;100315.97;5051885;28;20033;-83
2021/10/06 03:14:55;;;;;;;2.60;1.20;;;;;;;14.46;76.20;100317.56;5052426;28;20060;-84
2021/10/06 03:17:20;;;;;;;2.60;0.73;;;;;;;14.50;76.18;100328.97;5052614;28;20029;-84
2021/10/06 03:19:46;;;;;;;2.28;0.80;;;;;;;14.45;75.37;100326.41;5046947;28;20091;-84
2021/10/06 03:22:11;;;;;;;2.17;0.90;;;;;;;14.46;75.37;100328.19;5050866;28;20045;-83
2021/10/06 03:24:36;;;;;;;1.80;0.68;;;;;;;14.51;74.76;100340.47;5023796;28;20035;-83
2021/10/06 03:27:02;;;;;;;3.60;0.90;;;;;;;14.53;74.45;100354.59;5039977;28;20102;-83
2021/10/06 03:29:28;;;;;;;4.05;0.90;;;;;;;14.48;75.55;100355.56;5050127;28;20038;-83
2021/10/06 03:31:53;;;;;;;2.95;1.05;;;;;;;14.49;75.02;100361.75;5053060;28;20057;-83
2021/10/06 03:34:18;;;;;;;2.30;0.68;;;;;;;14.51;75.23;100369.66;5053475;28;20033;-84
2021/10/06 03:36:44;;;;;;;2.97;0.70;;;;;;;14.50;75.38;100370.59;5050246;28;20042;-83
2021/10/06 03:39:09;;;;;;;4.03;0.80;;;;;;;14.50;75.54;100373.25;5048158;28;20044;-84
2021/10/06 03:41:34;;;;;;;2.00;0.57;;;;;;;14.48;75.51;100379.44;5061865;28;20031;-83
2021/10/06 03:44:00;;;;;;;3.03;0.80;;;;;;;14.51;75.74;100377.63;5051320;28;20159;-84
2021/10/06 03:46:25;;;;;;;2.97;0.80;;;;;;;14.50;75.60;100381.22;5051818;28;20034;-83
2021/10/06 03:48:51;;;;;;;2.42;0.70;;;;;;;14.44;75.23;100383.09;5051407;28;20055;-83
2021/10/06 03:51:17;;;;;;;2.05;1.05;;;;;;;14.34;75.85;100392.19;5040197;28;20055;-84
2021/10/06 03:53:45;;;;;;;2.38;0.90;;;;;;;14.24;75.22;100396.84;5050853;28;20033;-83
2021/10/06 03:56:11;;;;;;;1.92;0.88;;;;;;;14.26;75.21;100386.22;5028385;28;20156;-85
2021/10/06 03:58:36;;;;;;;4.63;1.00;;;;;;;14.28;75.44;100392.34;5030727;28;20024;-84
2021/10/06 04:01:04;;;;;;;1.85;0.70;;;;;;;14.29;74.73;100395.88;5026654;28;20111;-84
2021/10/06 04:03:29;;;;;;;2.78;0.70;;;;;;;14.30;74.69;100395.81;5047773;28;20116;-83
2021/10/06 04:05:55;;;;;;;4.13;0.90;;;;;;;14.26;74.46;100404.78;5030931;28;20101;-84
2021/10/06 04:08:21;;;;;;;3.28;0.90;;;;;;;14.22;74.41;100403.09;5046869;28;20064;-84
2021/10/06 04:10:46;;;;;;;4.15;1.25;;;;;;;14.17;74.62;100399.69;5056246;28;20085;-84
2021/10/06 04:13:12;;;;;;;2.47;0.73;;;;;;;14.21;73.99;100401.38;5030068;28;20116;-83
2021/10/06 04:15:37;;;;;;;4.22;0.82;;;;;;;14.17;73.11;100399.69;5046679;28;20690;-82
2021/10/06 04:18:05;;;;;;;3.33;0.90;;;;;;;14.11;71.38;100407.78;5045523;28;20041;-83
2021/10/06 04:20:31;;;;;;;3.38;1.17;;;;;;;14.12;71.75;100415.72;5055084;28;20040;-83
2021/10/06 04:22:57;;;;;;;2.20;0.60;;;;;;;14.10;70.74;100412.22;5053418;28;20367;-83
2021/10/06 04:25:22;;;;;;;1.48;0.50;;;;;;;14.05;70.23;100413.25;5034790;28;20079;-83
2021/10/06 04:27:48;;;;;;;3.35;0.70;;;;;;;14.00;69.86;100419.50;5028272;28;20064;-82
2021/10/06 04:30:13;;;;;;;3.47;0.63;;;;;;;13.98;70.52;100413.34;5043485;28;20067;-81
2021/10/06 04:32:39;;;;;;;5.68;1.52;;;;;;;13.91;69.78;100417.06;5023194;28;20045;-83
2021/10/06 04:35:05;;;;;;;2.72;0.35;;;;;;;13.92;69.75;100421.47;5044425;28;20025;-83
2021/10/06 04:37:30;;;;;;;5.10;0.80;;;;;;;13.89;70.06;100426.84;5046403;28;20033;-82
2021/10/06 04:39:56;;;;;;;1.90;0.52;;;;;;;13.85;69.71;100432.22;5051464;28;20550;-82
2021/10/06 04:42:21;;;;;;;2.08;0.68;;;;;;;13.81;70.02;100442.06;5045085;28;20037;-83
2021/10/06 04:44:47;;;;;;;3.30;0.60;;;;;;;13.75;70.02;100445.72;5032500;28;20041;-83
2021/10/06 04:47:12;;;;;;;2.88;0.60;;;;;;;13.70;70.07;100451.97;5037788;28;20040;-82
2021/10/06 04:49:37;;;;;;;3.58;0.57;;;;;;;13.62;69.84;100459.22;5053540;28;20120;-83
2021/10/06 04:52:03;;;;;;;5.45;0.73;;;;;;;13.58;69.84;100459.28;5049807;28;20108;-83
2021/10/06 04:54:28;;;;;;;1.80;0.57;;;;;;;13.49;70.70;100459.47;5033647;28;20107;-82
2021/10/06 04:56:54;;;;;;;8.82;1.08;;;;;;;13.43;71.26;100464.88;5055193;28;20032;-83
2021/10/06 04:59:19;;;;;;;5.07;0.90;;;;;;;13.40;71.40;100470.25;5057063;28;20097;-83
2021/10/06 05:01:44;;;;;;;3.42;0.70;;;;;;;13.40;71.32;100469.38;5060060;28;20065;-82
2021/10/06 05:04:10;;;;;;;3.95;0.40;;;;;;;13.29;71.21;100466.94;5054396;28;20029;-82
2021/10/06 05:06:35;;;;;;;4.22;0.60;;;;;;;13.23;71.13;100478.50;5052252;28;20083;-82
2021/10/06 05:09:00;;;;;;;2.97;0.75;;;;;;;13.20;71.46;100473.22;5032120;28;20037;-82
2021/10/06 05:11:27;;;;;;;1.50;0.50;;;;;;;13.21;71.68;100471.47;5040207;28;20120;-83
2021/10/06 05:13:52;;;;;;;3.17;0.68;;;;;;;13.20;71.94;100472.34;5039558;28;20044;-82
2021/10/06 05:16:18;;;;;;;3.05;0.68;;;;;;;13.24;71.75;100482.00;5036862;28;20037;-82
2021/10/06 05:18:43;;;;;;;2.45;0.60;;;;;;;13.24;71.78;100479.34;5056389;28;20025;-82
2021/10/06 05:21:09;;;;;;;3.08;0.70;;;;;;;13.26;72.17;100480.22;5054540;28;20446;-82
2021/10/06 05:23:34;;;;;;;2.58;0.80;;;;;;;13.32;72.64;100483.63;5055438;28;20035;-82
2021/10/06 05:25:59;;;;;;;5.20;0.90;;;;;;;13.32;73.09;100490.72;5054316;28;20029;-83
2021/10/06 05:28:25;;;;;;;3.55;0.60;;;;;;;13.32;72.14;100496.88;5051739;28;20037;-82
2021/10/06 05:30:50;;;;;;;3.92;0.60;;;;;;;13.26;72.12;100494.38;5050963;28;20071;-82
2021/10/06 05:33:15;;;;;;;7.88;1.58;;;;;;;13.18;73.07;100492.69;5049573;28;20037;-82
2021/10/06 05:35:41;;;;;;;5.50;1.23;;;;;;;13.15;73.02;100496.28;5047459;28;20079;-82
2021/10/06 05:38:07;;;;;;;4.45;1.05;;;;;;;13.09;73.23;100499.91;5050219;28;20037;-82
2021/10/06 05:40:32;;;;;;;7.65;1.67;;;;;;;13.01;73.93;100509.75;5029817;28;20124;-82
2021/10/06 05:42:58;;;;;;;5.13;0.80;;;;;;;12.98;74.13;100507.16;5049647;28;20060;-82
2021/10/06 05:45:24;;;;;;;11.00;1.92;;;;;;;13.00;73.81;100504.50;5030432;28;20096;-82
2021/10/06 05:47:49;;;;;;;8.23;1.55;;;;;;;12.99;74.36;100510.69;5027728;28;20038;-82
2021/10/06 05:50:15;;;;;;;4.55;1.30;;;;;;;12.97;74.72;100508.06;5050238;28;20112;-82
2021/10/06 05:52:40;;;;;;;5.53;1.10;;;;;;;12.92;74.02;100515.22;5049236;28;20048;-83
2021/10/06 05:55:06;;;;;;;2.55;0.95;;;;;;;12.87;74.31;100523.25;5049293;28;20044;-82
2021/10/06 05:57:31;;;;;;;4.75;0.90;;;;;;;12.85;74.49;100529.44;5046390;28;20033;-82
2021/10/06 05:59:56;;;;;;;5.00;1.27;;;;;;;12.84;75.04;100533.00;5054945;28;20469;-82
2021/10/06 06:02:22;;;;;;;6.47;1.50;;;;;;;12.83;75.26;100531.25;5050065;28;20103;-82
2021/10/06 06:04:47;;;;;;;9.70;2.00;;;;;;;12.82;75.45;100532.16;5050625;28;20032;-82
2021/10/06 06:07:13;;;;;;;13.23;2.00;;;;;;;12.80;75.34;100541.88;5046097;28;20048;-82
2021/10/06 06:09:38;;;;;;;9.68;2.53;;;;;;;12.79;76.07;100543.66;5032158;28;20064;-82
2021/10/06 06:12:06;;;;;;;11.73;3.30;;;;;;;12.85;75.61;100542.69;5030217;28;20116;-82
2021/10/06 06:14:32;;;;;;;13.43;2.97;;;;;;;12.88;75.43;100542.66;5031799;28;20037;-82
2021/10/06 06:16:57;;;;;;;8.48;1.85;;;;;;;12.88;75.79;100545.28;5029911;28;20442;-82
2021/10/06 06:19:22;;;;;;;9.38;1.73;;;;;;;12.86;75.87;100565.63;5047982;28;20029;-82
2021/10/06 06:21:47;;;;;;;8.52;2.00;;;;;;;12.83;76.00;100566.53;5051376;28;20032;-83
2021/10/06 06:24:13;;;;;;;5.60;1.15;;;;;;;12.77;75.79;100573.72;5046870;28;20571;-82
2021/10/06 06:26:38;;;;;;;3.70;0.73;;;;;;;12.67;75.92;100584.44;5048809;28;20041;-82
2021/10/06 06:29:04;;;;;;;2.75;0.75;;;;;;;12.66;76.68;100589.75;5047063;28;20049;-82
2021/10/06 06:31:29;;;;;;;2.97;0.77;;;;;;;12.69;76.50;100585.28;5048367;28;20037;-82
2021/10/06 06:33:54;;;;;;;2.53;0.80;;;;;;;12.64;76.97;100589.78;5037226;28;20037;-82
2021/10/06 06:36:20;;;;;;;3.75;1.05;;;;;;;12.66;77.55;100589.75;5046482;28;20121;-82
2021/10/06 06:38:45;;;;;;;3.55;1.02;;;;;;;12.71;77.20;100596.75;5048756;28;20036;-82
2021/10/06 06:41:11;;;;;;;4.32;1.73;;;;;;;12.80;77.18;100594.88;5046541;28;20040;-82
2021/10/06 06:43:36;;;;;;;3.40;1.02;;;;;;;12.83;76.92;100597.47;5047372;28;20052;-82
2021/10/06 06:46:01;;;;;;;2.92;0.98;;;;;;;12.84;76.78;100589.50;5047464;28;20087;-82
2021/10/06 06:48:27;;;;;;;2.20;0.70;;;;;;;12.87;76.83;100592.09;5046805;28;20045;-82
2021/10/06 06:50:56;;;;;;;4.60;1.20;;;;;;;12.90;76.71;100597.34;5030509;28;20072;-83
2021/10/06 06:53:26;;;;;;;4.15;0.90;;;;;;;12.89;76.78;100595.63;5047611;28;20064;-82
2021/10/06 06:55:52;;;;;;;2.95;0.88;;;;;;;12.88;76.84;100598.28;5030725;28;20104;-82
2021/10/06 06:58:17;;;;;;;4.68;1.10;;;;;;;12.83;76.91;100610.69;5026340;28;20021;-82
2021/10/06 07:00:43;;;;;;;2.97;0.90;;;;;;;12.82;77.37;100614.25;5049846;28;20040;-82
2021/10/06 07:03:08;;;;;;;3.15;0.77;;;;;;;12.79;77.45;100619.59;5048014;28;20036;-82
2021/10/06 07:05:33;;;;;;;3.13;0.77;;;;;;;12.70;77.42;100621.44;5043292;28;20033;-83
2021/10/06 07:07:59;;;;;;;5.68;1.10;;;;;;;12.62;78.08;100612.75;5045758;28;20041;-82
2021/10/06 07:10:24;;;;;;;3.25;1.15;;;;;;;12.62;77.91;100618.03;5044843;28;20030;-82
2021/10/06 07:12:49;;;;;;;3.70;1.08;;;;;;;12.61;77.74;100626.88;5043764;28;20515;-82
2021/10/06 07:15:15;;;;;;;6.45;1.38;;;;;;;12.60;77.47;100630.44;5047997;28;20037;-83
2021/10/06 07:17:41;;;;;;;3.92;1.27;;;;;;;12.61;77.28;100640.13;5046382;28;20033;-82
2021/10/06 07:20:07;;;;;;;3.65;1.15;;;;;;;12.58;76.73;100637.53;5048982;28;20041;-82
2021/10/06 07:22:33;;;;;;;2.63;0.85;;;;;;;12.58;77.12;100629.59;5029337;28;20203;-82
2021/10/06 07:24:59;;;;;;;3.38;0.75;;;;;;;12.50;77.00;100623.50;5028656;28;20462;-82
2021/10/06 07:27:24;;;;;;;6.93;0.98;;;;;;;12.54;76.99;100633.16;5029523;28;20045;-82
2021/10/06 07:29:50;;;;;;;4.07;1.02;;;;;;;12.59;76.77;100633.97;5046749;28;20033;-82
2021/10/06 07:32:15;;;;;;;5.03;1.02;;;;;;;12.65;76.54;100633.91;5046703;28;20045;-82
2021/10/06 07:34:40;;;;;;;4.47;0.90;;;;;;;12.78;76.49;100639.03;5044974;28;20033;-82
2021/10/06 07:37:06;;;;;;;4.53;1.20;;;;;;;12.84;76.76;100633.66;5031184;28;20021;-82
2021/10/06 07:39:31;;;;;;;4.90;1.15;;;;;;;12.92;76.33;100637.06;5049128;28;20044;-82
2021/10/06 07:41:57;;;;;;;3.20;0.85;;;;;;;13.00;76.10;100640.50;5027664;28;20408;-82
2021/10/06 07:44:22;;;;;;;4.90;1.70;;;;;;;13.09;75.88;100647.41;5009308;28;20064;-83
2021/10/06 07:46:48;;;;;;;5.15;1.20;;;;;;;13.18;75.35;100651.69;5047323;28;20053;-82
2021/10/06 07:49:13;;;;;;;4.85;1.27;;;;;;;13.30;75.06;100648.91;5045710;28;20067;-81
2021/10/06 07:51:39;;;;;;;6.95;1.35;;;;;;;13.37;74.05;100650.56;5056575;28;20085;-83
2021/10/06 07:54:05;;;;;;;4.00;0.80;;;;;;;13.53;73.99;100656.50;5032442;28;20558;-82
2021/10/06 07:56:30;;;;;;;3.05;0.77;;;;;;;13.68;73.02;100652.72;5008771;28;20036;-82
2021/10/06 07:58:56;;;;;;;4.18;1.15;;;;;;;13.78;72.35;100654.28;5050194;28;20025;-82
2021/10/06 08:01:21;;;;;;;3.35;1.05;;;;;;;13.83;72.59;100655.09;5046074;28;20068;-82
2021/10/06 08:03:46;;;;;;;4.93;0.93;;;;;;;13.84;70.72;100661.28;5047552;28;20045;-82
2021/10/06 08:06:13;;;;;;;4.65;1.40;;;;;;;13.91;70.52;100666.47;5044461;28;20036;-83
2021/10/06 08:08:38;;;;;;;4.13;1.08;;;;;;;13.98;70.56;100675.19;5048274;28;20116;-83
2021/10/06 08:11:04;;;;;;;3.58;1.00;;;;;;;14.05;70.13;100681.25;5043104;28;20045;-83
2021/10/06 08:13:29;;;;;;;5.35;1.05;;;;;;;14.08;69.27;100681.22;5046241;28;20041;-82
2021/10/06 08:15:55;;;;;;;4.53;0.90;;;;;;;14.17;69.41;100681.91;5058941;28;20024;-83
2021/10/06 08:18:21;;;;;;;2.95;0.77;;;;;;;14.21;68.89;100688.03;5040341;28;20395;-82
2021/10/06 08:20:47;;;;;;;2.70;1.02;;;;;;;14.38;68.91;100690.34;5050971;28;20029;-82
2021/10/06 08:23:15;;;;;;;2.15;0.65;;;;;;;14.47;68.12;100688.41;5032843;28;20491;-82
2021/10/06 08:25:40;;;;;;;5.95;1.13;;;;;;;14.68;68.14;100699.53;5046492;28;20025;-82
2021/10/06 08:28:06;;;;;;;11.95;3.55;;;;;;;14.87;67.78;100692.94;5035282;28;20085;-83
2021/10/06 08:30:31;;;;;;;5.15;1.00;;;;;;;15.06;66.31;100705.81;5050448;28;20147;-83
2021/10/06 08:32:56;;;;;;;5.55;1.48;;;;;;;15.19;65.85;100709.94;5051241;28;20056;-83
2021/10/06 08:35:22;;;;;;;2.53;0.90;;;;;;;15.27;65.76;100718.66;5051173;28;20167;-82
2021/10/06 08:37:47;;;;;;;5.30;0.88;;;;;;;15.19;65.39;100723.25;5058466;28;20029;-82
2021/10/06 08:40:13;;;;;;;5.97;0.85;;;;;;;15.10;65.33;100721.69;5063421;28;20040;-82
2021/10/06 08:42:41;;;;;;;3.42;0.90;;;;;;;15.05;65.13;100720.03;5052803;28;20036;-82
2021/10/06 08:45:07;;;;;;;2.15;0.55;;;;;;;15.11;65.23;100715.44;5049322;28;20033;-82
2021/10/06 08:47:37;;;;;;;7.07;1.65;;;;;;;15.33;64.78;100712.31;5048075;28;20069;-83
2021/10/06 08:50:09;;;;;;;3.38;0.77;;;;;;;15.56;62.51;100711.75;5035495;28;20454;-83
2021/10/06 08:52:35;;;;;;;4.60;0.80;;;;;;;15.67;62.17;100720.38;5049795;28;20073;-83
2021/10/06 08:55:02;;;;;;;3.53;0.80;;;;;;;15.80;60.76;100725.41;5052816;28;20032;-83
2021/10/06 08:57:27;;;;;;;4.07;0.88;;;;;;;15.80;59.83;100730.75;5049704;28;20033;-83
2021/10/06 08:59:53;;;;;;;2.28;0.70;;;;;;;15.55;60.29;100739.28;5052459;28;20492;-82
2021/10/06 09:02:18;;;;;;;3.95;0.80;;;;;;;15.57;60.25;100741.00;5032038;28;20034;-83
2021/10/06 09:04:47;;;;;;;3.47;0.88;;;;;;;15.64;60.15;100746.16;5052165;28;20070;-83
2021/10/06 09:07:12;;;;;;;4.32;0.80;;;;;;;15.85;60.52;100744.81;5032014;28;20037;-83
2021/10/06 09:09:38;;;;;;;4.57;0.88;;;;;;;15.90;58.24;100750.91;5052441;28;20037;-82
2021/10/06 09:12:13;;;;;;;2.22;0.60;;;;;;;15.86;58.65;100757.22;5033987;28;20032;-82
2021/10/06 09:14:41;;;;;;;3.67;0.50;;;;;;;15.92;58.92;100757.06;5051094;28;20037;-82
2021/10/06 09:17:07;;;;;;;3.33;0.70;;;;;;;15.90;58.46;100748.25;5051780;28;20033;-82
2021/10/06 09:19:43;;;;;;;3.60;0.60;;;;;;;15.96;58.52;100756.09;5052142;28;21098;-83
2021/10/06 09:22:14;;;;;;;2.40;0.70;;;;;;;16.07;58.91;100759.34;5049135;28;20065;-82
2021/10/06 09:25:05;;;;;;;2.85;0.68;;;;;;;16.18;59.32;100765.25;5030827;28;20033;-82
2021/10/06 09:27:36;;;;;;;4.63;0.60;;;;;;;16.16;58.55;100761.75;5055747;28;20462;-83
2021/10/06 09:30:13;;;;;;;2.92;0.52;;;;;;;16.16;58.16;100771.53;5036468;28;20037;-83
2021/10/06 09:32:45;;;;;;;3.63;0.80;;;;;;;16.18;58.24;100770.59;5055253;28;20039;-83
2021/10/06 09:35:21;;;;;;;3.78;0.90;;;;;;;16.30;57.47;100765.88;5055006;28;20144;-83
2021/10/06 09:37:53;;;;;;;3.13;0.70;;;;;;;16.26;56.77;100772.19;5054510;28;20029;-83
2021/10/06 09:40:21;;;;;;;2.90;0.70;;;;;;;16.24;57.00;100785.53;5040331;28;20039;-82
2021/10/06 09:42:49;;;;;;;3.70;0.55;;;;;;;16.20;56.31;100783.88;5040561;28;20029;-82
2021/10/06 09:45:32;;;;;;;2.95;0.38;;;;;;;16.16;56.84;100784.84;5049159;28;20029;-83
2021/10/06 09:48:12;;;;;;;3.30;0.90;;;;;;;16.29;57.09;100802.28;5049227;28;20045;-83
2021/10/06 09:50:41;;;;;;;2.30;0.57;;;;;;;16.35;56.87;100802.13;5031049;28;20048;-83
2021/10/06 09:53:18;;;;;;;3.78;0.80;;;;;;;16.29;55.92;100799.59;5051064;28;20064;-82
2021/10/06 09:55:50;;;;;;;2.55;0.80;;;;;;;16.12;55.98;100794.72;5047856;28;20075;-83
2021/10/06 09:58:17;;;;;;;2.67;0.73;;;;;;;16.18;56.99;100796.34;5049768;28;20053;-83
2021/10/06 10:00:45;;;;;;;3.90;0.80;;;;;;;16.11;57.54;100798.31;5058615;28;20466;-82
2021/10/06 10:03:11;;;;;;;1.92;0.52;;;;;;;16.25;57.83;100791.75;5031270;28;20041;-82
2021/10/06 10:05:40;;;;;;;4.93;1.23;;;;;;;16.38;58.30;100786.06;5041227;28;20021;-83
2021/10/06 10:08:07;;;;;;;3.17;0.88;;;;;;;16.51;57.14;100781.31;5033456;28;20575;-82
2021/10/06 10:10:34;;;;;;;3.30;0.70;;;;;;;16.56;57.75;100781.19;5048352;28;20068;-82
2021/10/06 10:13:00;;;;;;;5.07;0.70;;;;;;;16.71;57.94;100788.72;5034096;28;20037;-83
2021/10/06 10:15:26;;;;;;;1.92;0.65;;;;;;;16.82;56.63;100793.81;5044321;28;20030;-82
2021/10/06 10:17:58;;;;;;;2.58;0.50;;;;;;;16.79;56.05;100783.22;5044752;28;20057;-83
2021/10/06 10:20:25;;;;;;;;;;;;;;;16.74;56.06;100801.09;5052851;28;20458;-82
2021/10/06 10:22:55;;;;;;;4.13;0.90;;;;;;;16.91;56.09;100800.69;5048987;28;19913;-82
2021/10/06 10:25:25;;;;;;;3.10;0.88;;;;;;;17.06;55.84;100798.47;5035537;28;20057;-82
2021/10/06 10:28:12;;;;;;;5.35;1.60;;;;;;;17.03;56.02;100809.22;5020229;28;20048;-82
2021/10/06 10:30:55;;;;;;;3.75;0.93;;;;;;;16.93;56.16;100813.06;5045129;28;20047;-82
2021/10/06 10:33:40;;;;;;;6.18;0.80;;;;;;;17.04;56.18;100810.09;5043531;28;20673;-82
2021/10/06 10:36:40;;;;;;;3.03;0.82;;;;;;;17.39;55.76;100817.03;5042763;28;20033;-82
2021/10/06 10:39:06;;;;;;;4.40;0.73;;;;;;;17.50;55.76;100817.63;5051826;28;20037;-83
2021/10/06 10:41:48;;;;;;;2.53;0.73;;;;;;;17.61;54.44;100813.75;5045494;28;20039;-83
2021/10/06 10:44:24;;;;;;;4.28;0.70;;;;;;;17.62;54.18;100813.69;5050119;28;20036;-83
2021/10/06 10:47:02;;;;;;;3.22;0.90;;;;;;;17.77;53.95;100817.69;5051542;28;20045;-82
2021/10/06 10:49:42;;;;;;;1.77;0.52;;;;;;;17.61;53.51;100822.63;5050319;28;20029;-82
2021/10/06 10:52:07;;;;;;;4.65;1.08;;;;;;;17.60;54.63;100825.34;5052638;28;20044;-82
2021/10/06 10:54:40;;;;;;;2.72;0.80;;;;;;;17.62;54.11;100823.50;5033771;28;20036;-82
2021/10/06 10:57:15;;;;;;;2.90;0.90;;;;;;;17.42;53.96;100832.09;5027161;28;20131;-83
2021/10/06 10:59:43;;;;;;;3.50;0.90;;;;;;;17.39;53.05;100822.38;5045189;28;20115;-83
2021/10/06 11:02:20;;;;;;;3.42;0.93;;;;;;;17.74;53.49;100823.13;5032490;28;20037;-84
2021/10/06 11:04:54;;;;;;;4.78;1.23;;;;;;;17.84;53.42;100819.28;5030444;28;20125;-83
2021/10/06 11:07:21;;;;;;;3.38;0.80;;;;;;;17.95;53.30;100822.47;5030758;28;20033;-84
2021/10/06 11:10:27;;;;;;;2.03;0.55;;;;;;;17.75;52.48;100832.88;5048010;28;20487;-83
2021/10/06 11:12:55;;;;;;;2.88;1.02;;;;;;;17.76;53.42;100826.59;5046508;28;20041;-83
2021/10/06 11:15:25;;;;;;;3.45;0.88;;;;;;;17.69;53.05;100830.41;5050418;28;20348;-83
2021/10/06 11:18:13;;;;;;;3.50;0.82;;;;;;;17.67;53.61;100845.59;5043241;28;20040;-83
2021/10/06 11:20:50;;;;;;;3.20;0.80;;;;;;;17.73;53.00;100842.72;5051829;28;20099;-83
2021/10/06 11:23:31;;;;;;;3.80;0.75;;;;;;;17.70;50.97;100837.47;5049696;28;20041;-84